Time;durP1;ratioP1;P1;durP2;ratioP2;P2;SDS_P1;SDS_P2;PMS_P1;PMS_P2;Temp;Humidity;BMP_temperature;BMP_pressure;BME280_temperature;BME280_humidity;BME280_pressure;Samples;Min_cycle;Max_cycle;Signal;HPM_P1;HPM_P2
2023/12/26 00:02:03;;;;;;;35.25;5.97;;;;;;;;;;4978833;28;19925;-49
2023/12/26 00:04:30;;;;;;;25.15;6.03;;;;;;;;;;4978263;28;20089;-61
2023/12/26 00:07:04;;;;;;;28.33;6.32;;;;;;;;;;4972109;28;21243;-60
2023/12/26 00:09:32;;;;;;;20.45;5.82;;;;;;;;;;4974971;28;20081;-60
2023/12/26 00:11:59;;;;;;;;;;;;;;;;;;4978663;28;20054;-61
2023/12/26 00:14:32;;;;;;;28.35;5.43;;;;;;;;;;4973999;28;20192;-60
2023/12/26 00:17:19;;;;;;;27.13;5.53;;;;;;;;;;4979695;28;20054;-60
2023/12/26 00:19:57;;;;;;;34.13;4.97;;;;;;;;;;4979245;28;20276;-64
2023/12/26 00:22:25;;;;;;;31.83;6.00;;;;;;;;;;4976711;28;20067;-64
2023/12/26 00:24:52;;;;;;;20.90;4.82;;;;;;;;;;4976971;28;20074;-64
2023/12/26 00:27:33;;;;;;;32.15;5.35;;;;;;;;;;4974016;28;20129;-63
2023/12/26 00:30:00;;;;;;;32.33;6.15;;;;;;;;;;4977046;28;20069;-51
2023/12/26 00:32:35;;;;;;;33.65;5.90;;;;;;;;;;4972788;28;20076;-64
2023/12/26 00:35:03;;;;;;;28.25;6.30;;;;;;;;;;4977519;28;20409;-60
2023/12/26 00:37:31;;;;;;;29.27;5.25;;;;;;;;;;4979331;28;20054;-59
2023/12/26 00:40:06;;;;;;;32.60;5.63;;;;;;;;;;4979800;28;20054;-59
2023/12/26 00:42:33;;;;;;;34.10;5.50;;;;;;;;;;4977776;28;20054;-59
2023/12/26 00:45:00;;;;;;;31.88;5.80;;;;;;;;;;4975466;28;20521;-60
2023/12/26 00:47:34;;;;;;;35.88;6.13;;;;;;;;;;4975224;28;20425;-59
2023/12/26 00:50:02;;;;;;;31.17;5.38;;;;;;;;;;4973878;28;20538;-60
2023/12/26 00:52:35;;;;;;;35.85;5.22;;;;;;;;;;4979150;28;20050;-61
2023/12/26 00:55:03;;;;;;;;;;;;;;;;;;4974964;28;20053;-60
2023/12/26 00:57:32;;;;;;;40.20;5.60;;;;;;;;;;4976889;28;19929;-61
2023/12/26 01:00:07;;;;;;;25.55;4.75;;;;;;;;;;4971401;28;20054;-63
2023/12/26 01:02:34;;;;;;;29.48;5.32;;;;;;;;;;4970587;28;20518;-59
2023/12/26 01:05:01;;;;;;;40.00;5.57;;;;;;;;;;4973942;28;20442;-60
2023/12/26 01:07:35;;;;;;;30.40;5.18;;;;;;;;;;4976643;28;20499;-59
2023/12/26 01:10:05;;;;;;;;;;;;;;;;;;4975719;28;20626;-60
2023/12/26 01:12:38;;;;;;;31.90;6.50;;;;;;;;;;4976722;28;19930;-61
2023/12/26 01:15:06;;;;;;;33.33;4.90;;;;;;;;;;4974274;28;20313;-60
2023/12/26 01:17:33;;;;;;;34.97;4.90;;;;;;;;;;4975133;28;20046;-49
2023/12/26 01:20:07;;;;;;;29.08;5.00;;;;;;;;;;4973848;28;20526;-48
2023/12/26 01:22:34;;;;;;;41.20;4.53;;;;;;;;;;4977671;28;20090;-46
2023/12/26 01:25:01;;;;;;;30.27;5.03;;;;;;;;;;4972036;28;20093;-48
2023/12/26 01:27:42;;;;;;;33.05;4.53;;;;;;;;;;4975660;28;20058;-60
2023/12/26 01:30:09;;;;;;;22.33;5.38;;;;;;;;;;4975930;28;20422;-60
2023/12/26 01:32:43;;;;;;;23.20;4.32;;;;;;;;;;4970639;28;20057;-60
2023/12/26 01:35:11;;;;;;;;;;;;;;;;;;4974291;28;20141;-59
2023/12/26 01:37:45;;;;;;;26.92;4.13;;;;;;;;;;4973978;28;19925;-59
2023/12/26 01:40:13;;;;;;;22.40;4.13;;;;;;;;;;4973769;28;20050;-59
2023/12/26 01:42:47;;;;;;;27.35;4.05;;;;;;;;;;4974808;28;20256;-60
2023/12/26 01:45:15;;;;;;;34.20;4.60;;;;;;;;;;4976297;28;20058;-58
2023/12/26 01:47:51;;;;;;;34.92;4.63;;;;;;;;;;4973385;28;21207;-60
2023/12/26 01:50:18;;;;;;;41.42;4.60;;;;;;;;;;4978956;28;20046;-60
2023/12/26 01:52:53;;;;;;;33.72;5.88;;;;;;;;;;4973255;28;20116;-59
2023/12/26 01:55:21;;;;;;;33.75;4.50;;;;;;;;;;4975158;28;20213;-59
2023/12/26 01:57:57;;;;;;;41.15;4.43;;;;;;;;;;4975088;28;20054;-59
2023/12/26 02:00:25;;;;;;;29.98;4.65;;;;;;;;;;4973646;28;20066;-53
2023/12/26 02:02:52;;;;;;;31.20;4.70;;;;;;;;;;4972618;28;20062;-54
2023/12/26 02:05:27;;;;;;;26.48;4.80;;;;;;;;;;4976360;28;20405;-54
2023/12/26 02:07:54;;;;;;;29.33;4.30;;;;;;;;;;4976947;28;20053;-54
2023/12/26 02:10:43;;;;;;;;;;;;;;;;;;4975474;28;20050;-54
2023/12/26 02:13:10;;;;;;;21.60;4.25;;;;;;;;;;4971815;28;19968;-49
2023/12/26 02:15:45;;;;;;;37.83;4.28;;;;;;;;;;4975776;28;20061;-52
2023/12/26 02:18:13;;;;;;;28.13;4.47;;;;;;;;;;4975450;28;20050;-54
2023/12/26 02:20:40;;;;;;;34.60;4.75;;;;;;;;;;4975977;28;20255;-49
2023/12/26 02:23:14;;;;;;;27.70;3.85;;;;;;;;;;4974740;28;20054;-47
2023/12/26 02:25:42;;;;;;;29.63;4.28;;;;;;;;;;4974165;28;20457;-57
2023/12/26 02:28:16;;;;;;;23.98;3.53;;;;;;;;;;4977517;28;20108;-58
2023/12/26 02:30:44;;;;;;;29.42;4.47;;;;;;;;;;4975731;28;20498;-55
2023/12/26 02:33:18;;;;;;;31.92;4.47;;;;;;;;;;4972346;28;20098;-58
2023/12/26 02:35:46;;;;;;;34.38;4.88;;;;;;;;;;4971920;28;20053;-57
2023/12/26 02:38:19;;;;;;;41.08;4.78;;;;;;;;;;4972844;28;20814;-57
2023/12/26 02:40:52;;;;;;;;;;;;;;;;;;4979124;28;20058;-55
2023/12/26 02:43:28;;;;;;;32.00;4.60;;;;;;;;;;4972817;28;19961;-56
2023/12/26 02:45:56;;;;;;;37.13;5.00;;;;;;;;;;4975003;28;20502;-55
2023/12/26 02:48:29;;;;;;;35.92;4.93;;;;;;;;;;4975326;28;20146;-57
2023/12/26 02:51:03;;;;;;;36.13;5.55;;;;;;;;;;4973243;28;20081;-56
2023/12/26 02:53:38;;;;;;;35.63;5.38;;;;;;;;;;4976035;28;20577;-60
2023/12/26 02:56:05;;;;;;;;;;;;;;;;;;4978811;28;20257;-61
2023/12/26 02:58:32;;;;;;;36.58;5.25;;;;;;;;;;4978234;28;19929;-60
2023/12/26 03:01:05;;;;;;;50.35;6.68;;;;;;;;;;4977846;28;20516;-61
2023/12/26 03:03:33;;;;;;;;;;;;;;;;;;4980659;28;20065;-61
2023/12/26 03:06:07;;;;;;;57.13;5.07;;;;;;;;;;4976721;28;20588;-61
2023/12/26 03:08:35;;;;;;;42.33;6.20;;;;;;;;;;4976296;28;20293;-61
2023/12/26 03:11:02;;;;;;;;;;;;;;;;;;4977857;28;20050;-60
2023/12/26 03:13:36;;;;;;;27.77;4.18;;;;;;;;;;4978098;28;19929;-60
2023/12/26 03:16:04;;;;;;;56.53;6.15;;;;;;;;;;4981462;28;20522;-60
2023/12/26 03:18:37;;;;;;;51.38;6.70;;;;;;;;;;4980667;28;20050;-59
2023/12/26 03:21:05;;;;;;;50.90;5.43;;;;;;;;;;4975280;28;20063;-61
2023/12/26 03:23:38;;;;;;;57.83;6.03;;;;;;;;;;4976591;28;20797;-58
2023/12/26 03:26:12;;;;;;;34.00;6.32;;;;;;;;;;4971110;28;20066;-48
2023/12/26 03:28:46;;;;;;;46.15;5.25;;;;;;;;;;4975599;28;20573;-50
2023/12/26 03:31:13;;;;;;;47.95;5.18;;;;;;;;;;4976521;28;20158;-48
2023/12/26 03:33:40;;;;;;;;;;;;;;;;;;4978386;28;20069;-49
2023/12/26 03:36:15;;;;;;;34.47;6.38;;;;;;;;;;4976419;28;19953;-49
2023/12/26 03:38:43;;;;;;;;;;;;;;;;;;4977400;28;20540;-49
2023/12/26 03:41:18;;;;;;;28.10;5.25;;;;;;;;;;4978635;28;19921;-60
2023/12/26 03:43:46;;;;;;;24.02;4.63;;;;;;;;;;4978095;28;20105;-60
2023/12/26 03:46:13;;;;;;;27.38;4.53;;;;;;;;;;4977219;28;20082;-61
2023/12/26 03:48:46;;;;;;;31.40;4.22;;;;;;;;;;4976759;28;20058;-61
2023/12/26 03:51:14;;;;;;;;;;;;;;;;;;4970562;28;20050;-62
2023/12/26 03:53:47;;;;;;;40.40;4.93;;;;;;;;;;4979201;28;20387;-61
2023/12/26 03:56:15;;;;;;;36.15;5.00;;;;;;;;;;4975729;28;20148;-60
2023/12/26 03:58:42;;;;;;;39.67;5.72;;;;;;;;;;4979376;28;20058;-60
2023/12/26 04:01:15;;;;;;;44.63;5.28;;;;;;;;;;4978799;28;20468;-62
2023/12/26 04:03:43;;;;;;;30.42;4.57;;;;;;;;;;4975719;28;20054;-63
2023/12/26 04:06:17;;;;;;;28.48;5.45;;;;;;;;;;4976086;28;20059;-62
2023/12/26 04:08:44;;;;;;;;;;;;;;;;;;4976675;28;20066;-60
2023/12/26 04:11:11;;;;;;;29.23;4.28;;;;;;;;;;4978030;28;19933;-62
2023/12/26 04:13:44;;;;;;;22.85;4.05;;;;;;;;;;4975856;28;20096;-62
2023/12/26 04:16:12;;;;;;;32.40;4.80;;;;;;;;;;4977803;28;20058;-62
2023/12/26 04:18:46;;;;;;;37.90;4.38;;;;;;;;;;4978925;28;20124;-63
2023/12/26 04:21:13;;;;;;;45.03;4.32;;;;;;;;;;4978431;28;20054;-62
2023/12/26 04:23:40;;;;;;;29.90;4.13;;;;;;;;;;4977374;28;20062;-63
2023/12/26 04:26:21;;;;;;;25.38;4.55;;;;;;;;;;4976032;28;20402;-62
2023/12/26 04:28:55;;;;;;;19.67;3.67;;;;;;;;;;4973349;28;20046;-61
2023/12/26 04:31:29;;;;;;;39.88;4.43;;;;;;;;;;4976667;28;20054;-61
2023/12/26 04:33:57;;;;;;;29.02;4.32;;;;;;;;;;4977272;28;20054;-62
2023/12/26 04:36:24;;;;;;;;;;;;;;;;;;4977299;28;20069;-52
2023/12/26 04:38:57;;;;;;;43.75;5.38;;;;;;;;;;4977591;28;20388;-54
2023/12/26 04:41:25;;;;;;;27.50;4.45;;;;;;;;;;4978030;28;20069;-52
2023/12/26 04:43:58;;;;;;;32.33;4.78;;;;;;;;;;4975535;28;20082;-55
2023/12/26 04:46:26;;;;;;;26.92;4.72;;;;;;;;;;4974494;28;20058;-60
2023/12/26 04:48:59;;;;;;;23.65;3.22;;;;;;;;;;4974651;28;20058;-61
2023/12/26 04:51:29;;;;;;;42.55;4.03;;;;;;;;;;4976300;28;20062;-61
2023/12/26 04:54:03;;;;;;;17.55;3.33;;;;;;;;;;4974019;28;20128;-62
2023/12/26 04:56:31;;;;;;;;;;;;;;;;;;4976937;28;20885;-61
2023/12/26 04:59:11;;;;;;;21.63;3.20;;;;;;;;;;4973581;28;20270;-62
2023/12/26 05:01:41;;;;;;;26.58;3.22;;;;;;;;;;4971680;28;20058;-62
2023/12/26 05:04:16;;;;;;;16.90;3.20;;;;;;;;;;4977853;28;20058;-51
2023/12/26 05:06:43;;;;;;;;;;;;;;;;;;4975493;28;20049;-49
2023/12/26 05:09:10;;;;;;;15.38;2.40;;;;;;;;;;4975618;28;20309;-52
2023/12/26 05:11:44;;;;;;;19.25;2.88;;;;;;;;;;4978124;28;20078;-50
2023/12/26 05:14:12;;;;;;;;;;;;;;;;;;4973006;28;20078;-49
2023/12/26 05:16:48;;;;;;;19.58;2.88;;;;;;;;;;4973830;28;21403;-65
2023/12/26 05:19:16;;;;;;;10.68;2.70;;;;;;;;;;4973718;28;20047;-54
2023/12/26 05:21:50;;;;;;;26.35;3.38;;;;;;;;;;4975472;28;20050;-51
2023/12/26 05:24:17;;;;;;;12.85;2.60;;;;;;;;;;4974949;28;20053;-56
2023/12/26 05:26:44;;;;;;;19.98;2.65;;;;;;;;;;4974687;28;20050;-53
2023/12/26 05:29:18;;;;;;;11.27;2.25;;;;;;;;;;4975691;28;20584;-56
2023/12/26 05:31:46;;;;;;;18.60;2.25;;;;;;;;;;4974698;28;20050;-52
2023/12/26 05:34:20;;;;;;;8.80;2.08;;;;;;;;;;4973527;28;20054;-65
2023/12/26 05:36:48;;;;;;;16.77;2.15;;;;;;;;;;4973142;28;20525;-65
2023/12/26 05:39:22;;;;;;;20.42;2.40;;;;;;;;;;4974260;28;20061;-65
2023/12/26 05:41:50;;;;;;;24.48;2.10;;;;;;;;;;4977734;28;20061;-64
2023/12/26 05:44:17;;;;;;;;;;;;;;;;;;4975233;28;20532;-54
2023/12/26 05:46:51;;;;;;;12.70;3.05;;;;;;;;;;4974039;28;20468;-52
2023/12/26 05:49:19;;;;;;;19.48;2.63;;;;;;;;;;4973598;28;20449;-52
2023/12/26 05:51:47;;;;;;;10.73;2.00;;;;;;;;;;4975650;28;20057;-47
2023/12/26 05:54:21;;;;;;;14.65;2.17;;;;;;;;;;4973793;28;20066;-47
2023/12/26 05:56:48;;;;;;;12.07;2.15;;;;;;;;;;4975184;28;20082;-50
2023/12/26 05:59:15;;;;;;;20.85;2.65;;;;;;;;;;4977387;28;20509;-52
2023/12/26 06:01:49;;;;;;;9.98;1.58;;;;;;;;;;4973481;28;20062;-60
2023/12/26 06:04:36;;;;;;;19.92;2.38;;;;;;;;;;4974105;28;20108;-61
2023/12/26 06:07:29;;;;;;;16.65;2.10;;;;;;;;;;4970276;28;20057;-60
2023/12/26 06:10:17;;;;;;;13.32;2.47;;;;;;;;;;4973533;28;20410;-60
2023/12/26 06:13:11;;;;;;;12.40;2.10;;;;;;;;;;4975038;28;20050;-56
2023/12/26 06:15:57;;;;;;;18.42;2.13;;;;;;;;;;4972222;28;20054;-61
2023/12/26 06:18:52;;;;;;;13.68;1.88;;;;;;;;;;4971912;28;20128;-61
2023/12/26 06:21:39;;;;;;;13.27;2.03;;;;;;;;;;4974234;28;20054;-61
2023/12/26 06:24:32;;;;;;;13.25;2.00;;;;;;;;;;4972993;28;20332;-61
2023/12/26 06:27:26;;;;;;;12.98;2.10;;;;;;;;;;4974385;28;20514;-60
2023/12/26 06:30:20;;;;;;;14.40;2.00;;;;;;;;;;4972105;28;20047;-60
2023/12/26 06:33:08;;;;;;;12.50;1.75;;;;;;;;;;4974181;28;20120;-60
2023/12/26 06:36:02;;;;;;;21.20;2.42;;;;;;;;;;4969669;28;20054;-61
2023/12/26 06:38:49;;;;;;;14.18;2.22;;;;;;;;;;4972088;28;20144;-60
2023/12/26 06:41:43;;;;;;;15.68;2.13;;;;;;;;;;4973869;28;20048;-66
2023/12/26 06:44:30;;;;;;;21.35;2.45;;;;;;;;;;4974405;28;20189;-55
2023/12/26 06:47:23;;;;;;;23.95;2.40;;;;;;;;;;4974966;28;20085;-55
2023/12/26 06:50:11;;;;;;;20.70;2.22;;;;;;;;;;4972862;28;20050;-55
2023/12/26 06:53:05;;;;;;;14.38;2.30;;;;;;;;;;4973048;28;20109;-52
2023/12/26 06:55:52;;;;;;;12.60;2.10;;;;;;;;;;4973575;28;20100;-54
2023/12/26 06:58:46;;;;;;;13.27;2.63;;;;;;;;;;4972410;28;20050;-52
2023/12/26 07:01:33;;;;;;;8.10;1.60;;;;;;;;;;4970946;28;20050;-49
2023/12/26 07:04:29;;;;;;;8.70;2.55;;;;;;;;;;4973679;28;20465;-51
2023/12/26 07:07:17;;;;;;;18.45;2.35;;;;;;;;;;4973955;28;20061;-52
2023/12/26 07:10:10;;;;;;;18.02;2.92;;;;;;;;;;4972728;28;20050;-52
2023/12/26 07:12:58;;;;;;;21.25;2.97;;;;;;;;;;4973512;28;20470;-60
2023/12/26 07:15:52;;;;;;;65.35;5.43;;;;;;;;;;4972653;28;20537;-60
2023/12/26 07:18:39;;;;;;;38.22;5.07;;;;;;;;;;4970786;28;20046;-60
2023/12/26 07:21:32;;;;;;;38.05;4.65;;;;;;;;;;4972078;28;20134;-60
2023/12/26 07:24:20;;;;;;;108.00;8.23;;;;;;;;;;4972783;28;20058;-60
2023/12/26 07:27:20;;;;;;;32.85;3.78;;;;;;;;;;4975056;28;20136;-64
2023/12/26 07:30:07;;;;;;;171.13;8.63;;;;;;;;;;4976274;28;20050;-65
2023/12/26 07:33:02;;;;;;;74.82;4.90;;;;;;;;;;4972872;28;20104;-63
2023/12/26 07:35:49;;;;;;;14.25;3.15;;;;;;;;;;4973336;28;20502;-64
2023/12/26 07:38:44;;;;;;;13.10;2.65;;;;;;;;;;4975741;28;20651;-61
2023/12/26 07:41:31;;;;;;;11.10;2.88;;;;;;;;;;4976424;28;20050;-65
2023/12/26 07:44:25;;;;;;;52.60;4.20;;;;;;;;;;4977414;28;20189;-65
2023/12/26 07:47:15;;;;;;;193.40;8.75;;;;;;;;;;4977984;28;20054;-65
2023/12/26 07:50:10;;;;;;;253.25;10.63;;;;;;;;;;4973862;28;20109;-65
2023/12/26 07:53:04;;;;;;;305.48;11.00;;;;;;;;;;4973659;28;20047;-64
2023/12/26 07:55:51;;;;;;;205.23;10.68;;;;;;;;;;4978626;28;20050;-60
2023/12/26 07:58:45;;;;;;;144.52;7.10;;;;;;;;;;4979515;28;20140;-60
2023/12/26 08:01:32;;;;;;;86.50;4.28;;;;;;;;;;4977500;28;20112;-59
2023/12/26 08:04:25;;;;;;;16.60;2.72;;;;;;;;;;4975867;28;20054;-60
2023/12/26 08:07:13;;;;;;;19.63;2.55;;;;;;;;;;4977167;28;20403;-60
2023/12/26 08:10:06;;;;;;;11.75;2.30;;;;;;;;;;4978428;28;20600;-54
2023/12/26 08:12:54;;;;;;;10.25;3.13;;;;;;;;;;4975056;28;20136;-50
2023/12/26 08:15:47;;;;;;;38.72;3.10;;;;;;;;;;4965572;28;20050;-53
2023/12/26 08:18:35;;;;;;;18.38;2.85;;;;;;;;;;4970453;28;20086;-52
2023/12/26 08:21:29;;;;;;;9.63;3.08;;;;;;;;;;4976657;28;20498;-53
2023/12/26 08:24:24;;;;;;;13.02;2.40;;;;;;;;;;4977016;28;20058;-60
2023/12/26 08:27:25;;;;;;;12.75;2.60;;;;;;;;;;4977889;28;20506;-60
2023/12/26 08:30:20;;;;;;;10.13;2.60;;;;;;;;;;4972092;28;20864;-61
2023/12/26 08:33:07;;;;;;;12.07;3.43;;;;;;;;;;4971642;28;20170;-61
2023/12/26 08:36:01;;;;;;;11.32;2.65;;;;;;;;;;4974386;28;20054;-58
2023/12/26 08:38:48;;;;;;;17.17;3.35;;;;;;;;;;4976448;28;20065;-60
2023/12/26 08:41:41;;;;;;;14.65;5.35;;;;;;;;;;4979463;28;20533;-60
2023/12/26 08:44:36;;;;;;;13.65;4.57;;;;;;;;;;4978886;28;20145;-60
2023/12/26 08:47:29;;;;;;;10.15;3.40;;;;;;;;;;4978261;28;20050;-61
2023/12/26 08:50:17;;;;;;;16.30;3.58;;;;;;;;;;4973973;28;20137;-61
2023/12/26 08:53:11;;;;;;;21.65;3.33;;;;;;;;;;4977595;28;20046;-60
2023/12/26 08:55:58;;;;;;;15.18;4.85;;;;;;;;;;4975341;28;20481;-61
2023/12/26 08:58:51;;;;;;;12.90;4.18;;;;;;;;;;4976336;28;20046;-61
2023/12/26 09:01:39;;;;;;;14.68;4.13;;;;;;;;;;4969946;28;20087;-62
2023/12/26 09:04:33;;;;;;;13.20;3.40;;;;;;;;;;4976286;28;20064;-59
2023/12/26 09:07:20;;;;;;;20.58;3.22;;;;;;;;;;4972971;28;20053;-62
2023/12/26 09:10:13;;;;;;;14.88;3.00;;;;;;;;;;4969056;28;20080;-60
2023/12/26 09:13:07;;;;;;;6.63;2.58;;;;;;;;;;4976585;28;20132;-60
2023/12/26 09:15:55;;;;;;;17.42;3.05;;;;;;;;;;4973348;28;20620;-60
2023/12/26 09:18:48;;;;;;;11.23;2.80;;;;;;;;;;4977001;28;20054;-60
2023/12/26 09:21:43;;;;;;;9.68;2.58;;;;;;;;;;4975137;28;20073;-50
2023/12/26 09:24:36;;;;;;;13.52;3.10;;;;;;;;;;4974680;28;20058;-47
2023/12/26 09:27:44;;;;;;;18.90;2.65;;;;;;;;;;4971710;28;20077;-51
2023/12/26 09:30:38;;;;;;;11.82;2.67;;;;;;;;;;4976875;28;20108;-66
2023/12/26 09:33:32;;;;;;;12.07;2.10;;;;;;;;;;4975918;28;20058;-57
2023/12/26 09:36:20;;;;;;;20.23;3.80;;;;;;;;;;4976288;28;20072;-52
2023/12/26 09:39:13;;;;;;;13.60;3.20;;;;;;;;;;4973473;28;20074;-52
2023/12/26 09:42:03;;;;;;;10.15;2.75;;;;;;;;;;4976265;28;20055;-52
2023/12/26 09:44:57;;;;;;;17.55;2.97;;;;;;;;;;4969091;28;20147;-56
2023/12/26 09:47:45;;;;;;;21.85;3.10;;;;;;;;;;4972426;28;20054;-55
2023/12/26 09:50:39;;;;;;;15.10;2.78;;;;;;;;;;4980214;28;20061;-61
2023/12/26 09:53:27;;;;;;;12.70;2.67;;;;;;;;;;4977985;28;20177;-60
2023/12/26 09:56:21;;;;;;;22.50;3.30;;;;;;;;;;4975225;28;20140;-61
2023/12/26 09:59:08;;;;;;;12.48;3.47;;;;;;;;;;4976818;28;20061;-62
2023/12/26 10:02:02;;;;;;;10.55;2.92;;;;;;;;;;4977986;28;20109;-60
2023/12/26 10:04:49;;;;;;;12.95;3.13;;;;;;;;;;4974948;28;20054;-61
2023/12/26 10:07:43;;;;;;;16.73;2.88;;;;;;;;;;4979517;28;20055;-60
2023/12/26 10:10:30;;;;;;;16.73;3.60;;;;;;;;;;4976724;28;20441;-61
2023/12/26 10:13:23;;;;;;;18.13;2.92;;;;;;;;;;4977807;28;20050;-60
2023/12/26 10:16:11;;;;;;;13.57;2.90;;;;;;;;;;4975291;28;20057;-60
2023/12/26 10:19:09;;;;;;;16.60;2.60;;;;;;;;;;4976366;28;20054;-61
2023/12/26 10:21:56;;;;;;;19.20;3.17;;;;;;;;;;4976057;28;20054;-61
2023/12/26 10:24:50;;;;;;;13.05;3.00;;;;;;;;;;4976858;28;20521;-60
2023/12/26 10:27:54;;;;;;;19.80;3.35;;;;;;;;;;4976306;28;20050;-61
2023/12/26 10:30:46;;;;;;;27.10;3.00;;;;;;;;;;4975520;28;20054;-61
2023/12/26 10:33:34;;;;;;;21.10;2.88;;;;;;;;;;4978511;28;20062;-61
2023/12/26 10:36:28;;;;;;;16.42;3.15;;;;;;;;;;4975339;28;20576;-63
2023/12/26 10:39:15;;;;;;;14.70;3.22;;;;;;;;;;4976251;28;20166;-63
2023/12/26 10:42:11;;;;;;;21.45;3.47;;;;;;;;;;4973613;28;20046;-61
2023/12/26 10:44:58;;;;;;;14.52;2.90;;;;;;;;;;4979156;28;20400;-61
2023/12/26 10:47:52;;;;;;;15.85;3.05;;;;;;;;;;4980959;28;20092;-68
2023/12/26 10:50:46;;;;;;;44.85;17.50;;;;;;;;;;4977799;28;20113;-68
2023/12/26 10:53:43;;;;;;;13.50;3.75;;;;;;;;;;4977493;28;20094;-68
2023/12/26 10:56:36;;;;;;;70.00;24.70;;;;;;;;;;4976658;28;20566;-56
2023/12/26 10:59:24;;;;;;;26.45;9.52;;;;;;;;;;4980485;28;20407;-61
2023/12/26 11:02:17;;;;;;;32.88;13.38;;;;;;;;;;4980894;28;20461;-61
2023/12/26 11:05:05;;;;;;;65.05;26.90;;;;;;;;;;4977407;28;20050;-60
2023/12/26 11:07:58;;;;;;;85.18;35.25;;;;;;;;;;4969208;28;20988;-60
2023/12/26 11:10:46;;;;;;;40.10;14.85;;;;;;;;;;4976502;28;20055;-63
2023/12/26 11:13:40;;;;;;;12.90;2.92;;;;;;;;;;4978497;28;20123;-61
2023/12/26 11:16:35;;;;;;;18.40;2.70;;;;;;;;;;4984528;28;20058;-52
2023/12/26 11:19:30;;;;;;;16.45;3.95;;;;;;;;;;4984517;28;20318;-48
2023/12/26 11:22:17;;;;;;;14.90;3.65;;;;;;;;;;4981839;28;20054;-54
2023/12/26 11:25:11;;;;;;;16.20;2.72;;;;;;;;;;4984021;28;20471;-61
2023/12/26 11:28:20;;;;;;;15.10;2.42;;;;;;;;;;4980939;28;20563;-60
2023/12/26 11:31:14;;;;;;;15.15;2.90;;;;;;;;;;4976598;28;20059;-61
2023/12/26 11:34:03;;;;;;;14.90;3.17;;;;;;;;;;4981213;28;20134;-60
2023/12/26 11:36:57;;;;;;;7.78;2.63;;;;;;;;;;4982059;28;20138;-61
2023/12/26 11:39:44;;;;;;;15.48;2.67;;;;;;;;;;4978682;28;20055;-61
2023/12/26 11:42:37;;;;;;;14.27;3.95;;;;;;;;;;4978489;28;20061;-56
2023/12/26 11:45:25;;;;;;;18.05;4.40;;;;;;;;;;4979895;28;20112;-58
2023/12/26 11:48:19;;;;;;;13.32;4.53;;;;;;;;;;4976827;28;20109;-58
2023/12/26 11:51:09;;;;;;;18.30;4.63;;;;;;;;;;4981565;28;20050;-58
2023/12/26 11:54:02;;;;;;;11.80;3.08;;;;;;;;;;4982176;28;20054;-60
2023/12/26 11:56:50;;;;;;;7.40;2.58;;;;;;;;;;4981270;28;20144;-68
2023/12/26 11:59:43;;;;;;;13.98;2.83;;;;;;;;;;4979059;28;20074;-68
2023/12/26 12:02:31;;;;;;;20.17;3.13;;;;;;;;;;4984428;28;20050;-67
2023/12/26 12:05:24;;;;;;;21.17;3.10;;;;;;;;;;4979061;28;20058;-67
2023/12/26 12:08:12;;;;;;;17.48;2.60;;;;;;;;;;4982033;28;20052;-67
2023/12/26 12:11:08;;;;;;;18.40;2.78;;;;;;;;;;4981663;28;20156;-55
2023/12/26 12:13:55;;;;;;;18.85;3.28;;;;;;;;;;4979059;28;20129;-56
2023/12/26 12:16:48;;;;;;;9.40;2.15;;;;;;;;;;4976571;28;20050;-56
2023/12/26 12:19:37;;;;;;;17.25;2.80;;;;;;;;;;4972923;28;20506;-55
2023/12/26 12:22:30;;;;;;;13.98;3.05;;;;;;;;;;4979038;28;20081;-61
2023/12/26 12:25:18;;;;;;;21.67;2.55;;;;;;;;;;4979857;28;20054;-57
2023/12/26 12:28:18;;;;;;;15.57;2.70;;;;;;;;;;4980510;28;20425;-58
2023/12/26 12:31:13;;;;;;;17.90;2.38;;;;;;;;;;4982103;28;20047;-58
2023/12/26 12:34:11;;;;;;;16.13;2.95;;;;;;;;;;4974421;28;21405;-58
2023/12/26 12:36:58;;;;;;;10.93;2.17;;;;;;;;;;4981498;28;20061;-58
2023/12/26 12:39:52;;;;;;;13.82;2.20;;;;;;;;;;4974415;28;20174;-61
2023/12/26 12:42:40;;;;;;;14.35;2.60;;;;;;;;;;4978209;28;20077;-61
2023/12/26 12:45:33;;;;;;;9.90;2.38;;;;;;;;;;4979196;28;20055;-60
2023/12/26 12:48:21;;;;;;;13.63;3.10;;;;;;;;;;4982311;28;20050;-61
2023/12/26 12:51:16;;;;;;;17.58;5.80;;;;;;;;;;4982888;28;20057;-61
2023/12/26 12:54:03;;;;;;;14.60;5.20;;;;;;;;;;4980719;28;20054;-61
2023/12/26 12:56:58;;;;;;;22.10;7.28;;;;;;;;;;4977717;28;20176;-61
2023/12/26 12:59:45;;;;;;;20.08;4.65;;;;;;;;;;4982052;28;20117;-61
2023/12/26 13:02:38;;;;;;;19.05;4.53;;;;;;;;;;4983283;28;20057;-62
2023/12/26 13:05:26;;;;;;;20.10;4.35;;;;;;;;;;4981391;28;20759;-61
2023/12/26 13:08:19;;;;;;;14.75;2.78;;;;;;;;;;4982949;28;20058;-61
2023/12/26 13:11:07;;;;;;;17.23;3.67;;;;;;;;;;4979456;28;20145;-62
2023/12/26 13:14:00;;;;;;;13.93;3.17;;;;;;;;;;4970598;28;20141;-61
2023/12/26 13:16:52;;;;;;;20.25;3.13;;;;;;;;;;4976414;28;20058;-61
2023/12/26 13:19:45;;;;;;;14.02;2.67;;;;;;;;;;4972297;28;20142;-67
2023/12/26 13:22:33;;;;;;;14.40;3.20;;;;;;;;;;4977110;28;22213;-61
2023/12/26 13:25:26;;;;;;;12.30;2.58;;;;;;;;;;4975308;28;20085;-61
2023/12/26 13:28:20;;;;;;;20.98;3.28;;;;;;;;;;4972521;28;20054;-60
2023/12/26 13:31:21;;;;;;;12.02;2.88;;;;;;;;;;4980267;28;20059;-61
2023/12/26 13:34:09;;;;;;;11.82;2.72;;;;;;;;;;4980199;28;20066;-60
2023/12/26 13:37:02;;;;;;;7.25;2.13;;;;;;;;;;4980120;28;20264;-60
2023/12/26 13:39:50;;;;;;;10.77;2.50;;;;;;;;;;4975119;28;20057;-61
2023/12/26 13:42:43;;;;;;;23.77;3.95;;;;;;;;;;4976344;28;20124;-60
2023/12/26 13:45:31;;;;;;;16.52;2.53;;;;;;;;;;4978617;28;20109;-61
2023/12/26 13:48:25;;;;;;;15.00;2.90;;;;;;;;;;4981422;28;20104;-55
2023/12/26 13:51:12;;;;;;;19.45;2.58;;;;;;;;;;4979546;28;20089;-61
2023/12/26 13:54:09;;;;;;;13.18;2.05;;;;;;;;;;4980124;28;20054;-60
2023/12/26 13:56:56;;;;;;;8.20;2.25;;;;;;;;;;4977715;28;20128;-60
2023/12/26 13:59:49;;;;;;;11.57;2.25;;;;;;;;;;4978872;28;20282;-61
2023/12/26 14:02:37;;;;;;;13.13;2.22;;;;;;;;;;4980232;28;20572;-61
2023/12/26 14:05:30;;;;;;;15.98;2.72;;;;;;;;;;4980951;28;20089;-60
2023/12/26 14:08:18;;;;;;;18.98;2.97;;;;;;;;;;4977432;28;20081;-60
2023/12/26 14:11:12;;;;;;;12.23;2.35;;;;;;;;;;4976627;28;20061;-60
2023/12/26 14:13:59;;;;;;;8.10;2.70;;;;;;;;;;4974709;28;20054;-60
2023/12/26 14:16:52;;;;;;;9.52;2.70;;;;;;;;;;4976864;28;20050;-54
2023/12/26 14:19:40;;;;;;;10.18;2.97;;;;;;;;;;4979132;28;20116;-60
2023/12/26 14:22:33;;;;;;;17.95;3.28;;;;;;;;;;4975658;28;20046;-60
2023/12/26 14:25:22;;;;;;;15.27;3.55;;;;;;;;;;4973196;28;20065;-61
2023/12/26 14:28:22;;;;;;;9.30;3.10;;;;;;;;;;4975608;28;20116;-61
2023/12/26 14:31:10;;;;;;;17.23;2.70;;;;;;;;;;4972200;28;20047;-61
2023/12/26 14:34:03;;;;;;;10.80;2.70;;;;;;;;;;4972605;28;20081;-50
2023/12/26 14:36:51;;;;;;;17.65;3.00;;;;;;;;;;4970598;28;20050;-50
2023/12/26 14:39:44;;;;;;;20.05;2.65;;;;;;;;;;4980026;28;20461;-49
2023/12/26 14:42:32;;;;;;;9.63;2.63;;;;;;;;;;4978221;28;20101;-52
2023/12/26 14:45:26;;;;;;;13.75;2.70;;;;;;;;;;4981144;28;20054;-66
2023/12/26 14:48:13;;;;;;;12.00;2.42;;;;;;;;;;4981634;28;20499;-61
2023/12/26 14:51:07;;;;;;;11.88;2.40;;;;;;;;;;4981103;28;20054;-60
2023/12/26 14:53:54;;;;;;;14.35;2.47;;;;;;;;;;4983186;28;20039;-60
2023/12/26 14:56:48;;;;;;;13.18;2.47;;;;;;;;;;4984308;28;20051;-60
2023/12/26 14:59:36;;;;;;;9.00;2.83;;;;;;;;;;4985885;28;20050;-60
2023/12/26 15:02:32;;;;;;;15.63;3.33;;;;;;;;;;4979805;28;20046;-51
2023/12/26 15:05:17;;;;;;;13.35;2.50;;;;;;;;;;4979085;28;20064;-47
2023/12/26 15:08:10;;;;;;;18.15;3.05;;;;;;;;;;4982038;28;20476;-47
2023/12/26 15:11:04;;;;;;;10.13;2.58;;;;;;;;;;4978202;28;20494;-47
2023/12/26 15:13:58;;;;;;;9.77;3.42;;;;;;;;;;4981108;28;20457;-56
2023/12/26 15:17:05;;;;;;;12.25;2.80;;;;;;;;;;4979968;28;20046;-61
2023/12/26 15:19:59;;;;;;;9.68;2.45;;;;;;;;;;4982672;28;20065;-60
2023/12/26 15:22:47;;;;;;;10.55;2.78;;;;;;;;;;4982842;28;20058;-60
2023/12/26 15:25:40;;;;;;;10.57;2.80;;;;;;;;;;4980958;28;20054;-60
2023/12/26 15:28:34;;;;;;;15.82;2.70;;;;;;;;;;4980622;28;20472;-60
2023/12/26 15:31:29;;;;;;;13.10;2.90;;;;;;;;;;4984070;28;20330;-60
2023/12/26 15:34:17;;;;;;;6.95;2.55;;;;;;;;;;4979633;28;20046;-60
2023/12/26 15:37:10;;;;;;;8.52;2.60;;;;;;;;;;4976753;28;20047;-60
2023/12/26 15:40:03;;;;;;;10.73;3.08;;;;;;;;;;4973167;28;20104;-60
2023/12/26 15:42:57;;;;;;;11.85;3.75;;;;;;;;;;4974784;28;20100;-61
2023/12/26 15:45:47;;;;;;;12.60;2.25;;;;;;;;;;4979552;28;20529;-66
2023/12/26 15:48:39;;;;;;;9.90;2.50;;;;;;;;;;4981635;28;20062;-65
2023/12/26 15:51:26;;;;;;;12.07;2.70;;;;;;;;;;4980023;28;20636;-65
2023/12/26 15:54:19;;;;;;;11.45;2.78;;;;;;;;;;4977787;28;20120;-68
2023/12/26 15:57:07;;;;;;;9.65;2.42;;;;;;;;;;4983007;28;20141;-67
2023/12/26 16:00:01;;;;;;;21.92;2.97;;;;;;;;;;4982783;28;20529;-59
2023/12/26 16:02:48;;;;;;;14.50;3.05;;;;;;;;;;4976405;28;20058;-60
2023/12/26 16:05:42;;;;;;;11.77;3.17;;;;;;;;;;4978770;28;20141;-60
2023/12/26 16:08:29;;;;;;;13.98;2.72;;;;;;;;;;4976875;28;20096;-59
2023/12/26 16:11:24;;;;;;;17.10;3.63;;;;;;;;;;4980444;28;20502;-59